Terminal Aerodrome Forecast
Issued by NWS Bismarck, ND

Home | Current Version | Previous Version | Text Only | Print | Product List | Glossary On
Versions: 1 2 3 4 5 6 7 8 9 10 11 12 13 14 15 16 17
000
FTUS43 KBIS 301129
TAFBIS
TAF
KBIS 301129Z 3012/3112 09005KT P6SM FEW100
     FM301700 11010KT P6SM SCT100
     FM310600 12010KT P6SM VCSH OVC090=

USA.gov is the U.S. government's official web portal to all federal, state and local government web resources and services.